createdAt,value
2022-11-03T00:00:04.330Z,2.19
2022-11-03T00:02:15.753Z,2.13
2022-11-03T00:04:27.698Z,2.26
2022-11-03T00:06:39.792Z,2.26
2022-11-03T00:08:51.857Z,2.17
2022-11-03T00:11:03.928Z,2.19
2022-11-03T00:13:16.010Z,2.10
2022-11-03T00:15:28.089Z,2.16
2022-11-03T00:17:40.203Z,2.10
2022-11-03T00:19:52.263Z,2.08
2022-11-03T00:22:04.346Z,1.94
2022-11-03T00:24:16.433Z,1.93
2022-11-03T00:26:28.512Z,1.97
2022-11-03T00:28:40.625Z,1.91
2022-11-03T00:30:52.668Z,1.89
2022-11-03T00:33:06.048Z,1.90
2022-11-03T00:35:17.834Z,2.02
2022-11-03T00:37:29.918Z,2.08
2022-11-03T00:39:42.025Z,2.02
2022-11-03T00:41:54.066Z,1.99
2022-11-03T00:44:06.159Z,1.98
2022-11-03T00:46:18.236Z,1.99
2022-11-03T00:48:30.341Z,1.97
2022-11-03T00:50:43.365Z,1.91
2022-11-03T00:52:54.790Z,1.85
2022-11-03T00:55:06.862Z,1.87
2022-11-03T00:57:18.975Z,1.87
2022-11-03T00:59:31.045Z,1.90
2022-11-03T01:01:47.185Z,1.93
2022-11-03T01:03:55.206Z,1.80
2022-11-03T01:06:07.292Z,1.78
2022-11-03T01:08:20.447Z,1.75
2022-11-03T01:10:31.458Z,1.69
2022-11-03T01:12:43.557Z,1.68
2022-11-03T01:14:56.609Z,1.68
2022-11-03T01:17:08.701Z,1.73
2022-11-03T01:19:20.774Z,1.76
2022-11-03T01:21:32.848Z,1.75
2022-11-03T01:23:46.797Z,1.75
2022-11-03T01:25:58.007Z,1.76
2022-11-03T01:28:10.099Z,1.75
2022-11-03T01:30:22.208Z,1.75
2022-11-03T01:32:34.291Z,1.75
2022-11-03T01:34:46.412Z,1.73
2022-11-03T01:36:58.441Z,1.73
2022-11-03T01:39:10.526Z,1.78
2022-11-03T01:41:22.609Z,1.79
2022-11-03T01:43:34.684Z,1.82
2022-11-03T01:45:47.797Z,1.79
2022-11-03T01:47:59.858Z,1.76
2022-11-03T01:50:11.927Z,1.73
2022-11-03T01:52:25.002Z,1.69
2022-11-03T01:54:37.087Z,1.65
2022-11-03T01:56:49.194Z,1.61
2022-11-03T01:59:01.260Z,1.57
2022-11-03T02:01:13.400Z,1.57
2022-11-03T02:03:25.418Z,1.54
2022-11-03T02:05:37.547Z,1.47
2022-11-03T02:07:49.658Z,1.57
2022-11-03T02:10:01.722Z,1.58
2022-11-03T02:12:13.796Z,1.62
2022-11-03T02:14:25.890Z,1.64
2022-11-03T02:16:37.961Z,1.55
2022-11-03T02:18:50.060Z,1.54
2022-11-03T02:21:02.125Z,1.50
2022-11-03T02:23:14.209Z,1.52
2022-11-03T02:25:26.301Z,1.55
2022-11-03T02:27:38.388Z,1.52
2022-11-03T02:29:50.493Z,1.57
2022-11-03T02:32:02.574Z,1.60
2022-11-03T02:34:14.657Z,1.61
2022-11-03T02:36:26.745Z,1.55
2022-11-03T02:38:38.814Z,1.54
2022-11-03T02:40:50.919Z,1.60
2022-11-03T02:43:03.071Z,1.60
2022-11-03T02:45:17.492Z,1.65
2022-11-03T02:47:27.144Z,1.72
2022-11-03T02:49:39.233Z,1.73
2022-11-03T02:51:52.302Z,1.69
2022-11-03T02:54:04.396Z,1.72
2022-11-03T02:56:16.466Z,1.69
2022-11-03T02:58:28.546Z,1.69
2022-11-03T03:00:40.650Z,1.71
2022-11-03T03:02:52.792Z,1.76
2022-11-03T03:05:04.845Z,1.90
2022-11-03T03:07:16.930Z,1.87
2022-11-03T03:09:29.015Z,1.89
2022-11-03T03:11:42.093Z,1.94
2022-11-03T03:13:54.182Z,2.02
2022-11-03T03:16:06.251Z,2.06
2022-11-03T03:18:18.340Z,2.08
2022-11-03T03:20:30.417Z,2.13
2022-11-03T03:22:44.331Z,2.15
2022-11-03T03:24:55.593Z,2.16
2022-11-03T03:27:07.653Z,2.17
2022-11-03T03:29:19.727Z,2.22
2022-11-03T03:31:31.810Z,2.26
2022-11-03T03:33:47.506Z,2.28
2022-11-03T03:35:55.999Z,2.28
2022-11-03T03:38:08.323Z,2.31
2022-11-03T03:40:20.181Z,2.27
2022-11-03T03:42:32.261Z,2.16
2022-11-03T03:44:44.342Z,2.10
2022-11-03T03:46:56.460Z,2.13
2022-11-03T03:49:08.502Z,2.09
2022-11-03T03:51:20.587Z,2.06
2022-11-03T03:53:32.663Z,2.01
2022-11-03T03:55:44.743Z,1.99
2022-11-03T03:57:59.491Z,1.98
2022-11-03T04:00:08.910Z,1.94
2022-11-03T04:02:21.048Z,1.93
2022-11-03T04:04:34.090Z,1.91
2022-11-03T04:06:46.160Z,1.98
2022-11-03T04:08:58.324Z,1.93
2022-11-03T04:11:10.373Z,1.93
2022-11-03T04:13:22.470Z,1.85
2022-11-03T04:15:34.528Z,1.85
2022-11-03T04:19:58.726Z,1.80
2022-11-03T04:22:10.770Z,1.83
2022-11-03T04:24:22.852Z,1.78
2022-11-03T04:26:34.923Z,1.73
2022-11-03T04:28:47.003Z,1.72
2022-11-03T04:30:59.318Z,1.68
2022-11-03T04:33:11.232Z,1.58
2022-11-03T04:35:23.273Z,1.58
2022-11-03T04:37:35.347Z,1.61
2022-11-03T04:39:47.428Z,1.61
2022-11-03T04:41:59.527Z,1.64
2022-11-03T04:44:11.597Z,1.62
2022-11-03T04:46:23.680Z,1.58
2022-11-03T04:48:35.761Z,1.58
2022-11-03T04:50:47.831Z,1.55
2022-11-03T04:53:00.108Z,1.55
2022-11-03T05:15:41.623Z,1.62
2022-11-03T05:17:53.700Z,1.78
2022-11-03T05:20:05.799Z,1.87
2022-11-03T05:22:17.882Z,1.98
2022-11-03T05:24:29.960Z,2.10
2022-11-03T05:26:42.067Z,2.26
2022-11-03T05:28:54.194Z,2.27
2022-11-03T05:31:06.205Z,2.28
2022-11-03T05:33:18.285Z,2.23
2022-11-03T05:35:30.407Z,2.48
2022-11-03T05:37:42.502Z,2.55
2022-11-03T05:39:54.555Z,2.59
2022-11-03T05:42:07.634Z,2.89
2022-11-03T05:44:19.696Z,3.20
2022-11-03T05:46:31.795Z,3.21
2022-11-03T05:48:44.737Z,3.16
2022-11-03T05:50:57.239Z,2.98
2022-11-03T05:53:09.339Z,2.85
2022-11-03T05:55:21.406Z,2.69
2022-11-03T05:57:33.580Z,2.56
2022-11-03T05:59:45.599Z,2.52
2022-11-03T06:01:57.762Z,2.45
2022-11-03T06:04:10.584Z,2.35
2022-11-03T06:06:24.209Z,2.22
2022-11-03T06:08:34.919Z,2.15
2022-11-03T06:10:47.053Z,2.06
2022-11-03T06:12:59.076Z,2.02
2022-11-03T06:15:11.166Z,2.02
2022-11-03T06:17:23.253Z,1.99
2022-11-03T06:19:35.314Z,1.98
2022-11-03T06:21:50.259Z,1.99
2022-11-03T06:24:10.235Z,2.04
2022-11-03T06:26:22.299Z,2.08
2022-11-03T06:28:34.386Z,1.99
2022-11-03T06:30:46.469Z,1.97
2022-11-03T06:32:58.554Z,1.98
2022-11-03T06:35:10.617Z,2.02
2022-11-03T06:37:22.703Z,2.09
2022-11-03T06:39:34.790Z,2.16
2022-11-03T06:41:47.712Z,2.15
2022-11-03T06:43:59.950Z,2.15
2022-11-03T06:46:12.023Z,2.26
2022-11-03T06:48:24.110Z,2.30
2022-11-03T06:50:39.765Z,2.35
2022-11-03T06:55:00.403Z,2.48
2022-11-03T06:57:13.437Z,2.53
2022-11-03T06:59:25.553Z,2.58
2022-11-03T07:01:37.714Z,2.53
2022-11-03T07:03:49.751Z,2.56
2022-11-03T07:06:01.849Z,2.77
2022-11-03T07:08:13.891Z,2.92
2022-11-03T07:10:25.987Z,3.05
2022-11-03T07:12:38.074Z,3.13
2022-11-03T07:14:51.158Z,3.20
2022-11-03T07:17:03.263Z,3.28
2022-11-03T07:19:15.393Z,3.44
2022-11-03T07:21:27.430Z,3.68
2022-11-03T07:23:42.123Z,4.03
2022-11-03T07:25:51.661Z,4.28
2022-11-03T07:28:03.143Z,4.54
2022-11-03T07:30:15.155Z,4.76
2022-11-03T07:32:27.269Z,5.16
2022-11-03T07:34:39.345Z,5.32
2022-11-03T07:36:55.718Z,5.41
2022-11-03T07:39:04.600Z,5.53
2022-11-03T07:41:16.606Z,5.60
2022-11-03T07:43:28.681Z,5.81
2022-11-03T07:45:40.764Z,5.93
2022-11-03T07:47:52.841Z,6.03
2022-11-03T07:50:05.434Z,6.06
2022-11-03T07:52:17.015Z,6.14
2022-11-03T07:54:29.105Z,6.25
2022-11-03T07:56:41.179Z,6.32
2022-11-03T07:58:53.279Z,6.33
2022-11-03T08:01:05.690Z,6.35
2022-11-03T08:03:18.591Z,6.40
2022-11-03T08:05:29.837Z,6.40
2022-11-03T08:07:41.924Z,6.48
2022-11-03T08:09:54.007Z,6.66
2022-11-03T08:12:06.140Z,6.79
2022-11-03T08:14:18.205Z,6.84
2022-11-03T08:16:30.283Z,6.90
2022-11-03T08:18:42.373Z,7.02
2022-11-03T08:20:54.458Z,7.15
2022-11-03T08:23:24.617Z,7.22
2022-11-03T08:24:08.350Z,7.24
2022-11-03T08:26:18.624Z,7.29
2022-11-03T08:28:31.243Z,7.32
2022-11-03T08:30:42.790Z,7.41
2022-11-03T08:32:54.908Z,7.45
2022-11-03T08:35:06.955Z,7.49
2022-11-03T08:37:19.051Z,7.59
2022-11-03T08:39:31.142Z,7.72
2022-11-03T08:41:43.193Z,7.85
2022-11-03T08:43:56.285Z,7.93
2022-11-03T08:46:17.143Z,8.02
2022-11-03T08:48:20.441Z,8.11
2022-11-03T08:50:32.535Z,8.14
2022-11-03T08:52:44.610Z,8.20
2022-11-03T08:57:08.804Z,8.44
2022-11-03T08:59:21.855Z,8.50
2022-11-03T09:01:33.121Z,8.60
2022-11-03T09:03:45.123Z,8.66
2022-11-03T09:05:58.062Z,8.75
2022-11-03T09:10:24.741Z,9.05
2022-11-03T09:12:33.375Z,9.23
2022-11-03T09:14:45.474Z,9.34
2022-11-03T09:16:57.584Z,9.40
2022-11-03T09:19:09.643Z,9.40
2022-11-03T09:21:21.732Z,9.50
2022-11-03T09:23:33.859Z,9.57
2022-11-03T09:25:45.938Z,9.75
2022-11-03T09:27:58.004Z,9.89
2022-11-03T09:30:14.318Z,10.01
2022-11-03T09:32:23.675Z,10.15
2022-11-03T09:34:34.300Z,10.24
2022-11-03T09:36:52.164Z,10.28
2022-11-03T09:38:58.435Z,10.37
2022-11-03T09:41:24.802Z,10.53
2022-11-03T09:42:11.481Z,10.62
2022-11-03T09:44:22.564Z,10.81
2022-11-03T09:46:34.663Z,11.02
2022-11-03T09:48:46.749Z,11.17
2022-11-03T09:50:58.864Z,11.32
2022-11-03T09:53:10.906Z,11.43
2022-11-03T09:55:23.002Z,11.57
2022-11-03T09:57:36.565Z,11.65
2022-11-03T09:59:48.643Z,11.72
2022-11-03T10:02:00.875Z,11.85
2022-11-03T10:04:13.810Z,11.89
2022-11-03T10:06:25.891Z,11.80
2022-11-03T10:08:37.973Z,11.93
2022-11-03T10:10:50.068Z,11.93
2022-11-03T10:13:02.199Z,12.02
2022-11-03T10:15:14.220Z,11.99
2022-11-03T10:17:26.301Z,11.96
2022-11-03T10:19:38.361Z,11.99
2022-11-03T10:21:50.457Z,11.99
2022-11-03T10:24:02.562Z,11.99
2022-11-03T10:26:14.633Z,12.09
2022-11-03T10:28:26.706Z,12.08
2022-11-03T10:30:58.088Z,12.12
2022-11-03T10:32:50.879Z,12.20
2022-11-03T10:35:02.980Z,12.23
2022-11-03T10:37:15.378Z,12.24
2022-11-03T10:39:27.441Z,12.16
2022-11-03T10:41:39.499Z,12.21
2022-11-03T10:43:52.422Z,12.19
2022-11-03T10:46:03.697Z,12.16
2022-11-03T10:48:15.747Z,12.26
2022-11-03T10:50:27.816Z,12.24
2022-11-03T10:52:39.916Z,12.27
2022-11-03T10:54:51.994Z,12.30
2022-11-03T10:57:04.119Z,12.26
2022-11-03T10:59:16.185Z,12.27
2022-11-03T11:01:28.408Z,12.29
2022-11-03T11:03:41.369Z,12.33
2022-11-03T11:05:53.733Z,12.37
2022-11-03T11:08:05.865Z,12.31
2022-11-03T11:10:18.902Z,12.34
2022-11-03T11:12:30.979Z,12.31
2022-11-03T11:14:44.062Z,12.33
2022-11-03T11:16:56.130Z,12.37
2022-11-03T11:19:08.257Z,12.37
2022-11-03T11:21:20.323Z,12.34
2022-11-03T11:23:32.373Z,12.33
2022-11-03T11:25:44.457Z,12.27
2022-11-03T11:27:58.354Z,12.23
2022-11-03T11:30:08.639Z,12.20
2022-11-03T11:32:20.712Z,12.16
2022-11-03T11:34:32.790Z,12.19
2022-11-03T11:36:45.901Z,12.20
2022-11-03T11:38:57.983Z,12.13
2022-11-03T11:41:10.117Z,12.16
2022-11-03T11:43:22.997Z,12.13
2022-11-03T11:45:34.244Z,12.13
2022-11-03T11:47:46.346Z,12.15
2022-11-03T11:49:58.412Z,12.23
2022-11-03T11:52:15.202Z,12.20
2022-11-03T11:54:22.575Z,12.20
2022-11-03T11:56:34.659Z,12.27
2022-11-03T11:58:46.743Z,12.33
2022-11-03T12:00:58.841Z,12.33
2022-11-03T12:03:11.333Z,12.38
2022-11-03T12:05:22.998Z,12.44
2022-11-03T12:07:35.088Z,12.42
2022-11-03T12:09:47.229Z,12.44
2022-11-03T12:12:00.783Z,12.48
2022-11-03T12:14:11.313Z,12.45
2022-11-03T12:16:23.407Z,12.49
2022-11-03T12:18:40.030Z,12.49
2022-11-03T12:20:49.059Z,12.56
2022-11-03T12:23:02.146Z,12.54
2022-11-03T12:25:15.252Z,12.57
2022-11-03T12:27:27.310Z,12.52
2022-11-03T12:29:40.369Z,12.54
2022-11-03T12:31:52.480Z,12.59
2022-11-03T12:34:04.565Z,12.62
2022-11-03T12:36:16.637Z,12.66
2022-11-03T12:38:28.709Z,12.69
2022-11-03T12:40:40.860Z,12.77
2022-11-03T12:42:52.875Z,12.84
2022-11-03T12:45:04.956Z,12.88
2022-11-03T12:47:19.077Z,12.85
2022-11-03T12:49:32.092Z,12.88
2022-11-03T12:51:44.188Z,12.93
2022-11-03T12:53:56.273Z,12.93
2022-11-03T12:56:09.349Z,12.95
2022-11-03T12:58:21.448Z,12.96
2022-11-03T13:00:33.562Z,12.97
2022-11-03T13:02:45.717Z,12.96
2022-11-03T13:04:58.781Z,12.89
2022-11-03T13:07:10.779Z,12.85
2022-11-03T13:09:22.895Z,12.81
2022-11-03T13:11:34.943Z,12.78
2022-11-03T13:13:47.868Z,12.78
2022-11-03T13:15:59.141Z,12.75
2022-11-03T13:18:13.796Z,12.70
2022-11-03T13:20:23.274Z,12.77
2022-11-03T13:22:36.345Z,12.71
2022-11-03T13:24:48.452Z,12.64
2022-11-03T13:27:00.507Z,12.63
2022-11-03T13:29:12.591Z,12.60
2022-11-03T13:31:24.745Z,12.51
2022-11-03T13:33:36.745Z,12.49
2022-11-03T13:35:48.960Z,12.44
2022-11-03T13:38:00.916Z,12.38
2022-11-03T13:40:35.880Z,12.38
2022-11-03T13:41:14.107Z,12.37
2022-11-03T13:43:25.114Z,12.29
2022-11-03T13:45:37.200Z,12.21
2022-11-03T13:48:23.171Z,12.15
2022-11-03T13:51:01.358Z,12.05
2022-11-03T13:56:25.773Z,11.96
2022-11-03T14:00:49.699Z,11.89
2022-11-03T14:05:14.831Z,11.80
2022-11-03T14:07:26.894Z,11.78
2022-11-03T14:09:39.176Z,11.72
2022-11-03T14:11:51.068Z,11.71
2022-11-03T14:14:03.193Z,11.68
2022-11-03T14:16:15.595Z,11.62
2022-11-03T14:18:27.608Z,11.68
2022-11-03T14:20:39.773Z,11.68
2022-11-03T14:22:51.772Z,11.68
2022-11-03T14:25:03.857Z,11.72
2022-11-03T14:27:16.005Z,11.72
2022-11-03T14:29:28.997Z,11.68
2022-11-03T14:31:41.094Z,11.71
2022-11-03T14:33:54.103Z,11.65
2022-11-03T14:36:05.235Z,11.57
2022-11-03T14:38:17.321Z,11.49
2022-11-03T14:40:29.415Z,11.41
2022-11-03T14:42:41.515Z,11.38
2022-11-03T14:47:05.650Z,11.35
2022-11-03T14:49:17.740Z,11.28
2022-11-03T14:51:29.792Z,11.19
2022-11-03T14:53:41.906Z,11.10
2022-11-03T14:55:53.960Z,11.06
2022-11-03T14:58:07.332Z,11.01
2022-11-03T15:00:19.189Z,10.98
2022-11-03T15:02:34.774Z,10.92
2022-11-03T15:04:50.340Z,10.84
2022-11-03T15:07:03.928Z,10.80
2022-11-03T15:09:17.510Z,10.74
2022-11-03T15:11:30.070Z,10.68
2022-11-03T15:13:45.979Z,10.60
2022-11-03T15:15:54.257Z,10.55
2022-11-03T15:18:07.330Z,10.51
2022-11-03T15:20:20.249Z,10.53
2022-11-03T15:25:44.527Z,10.47
2022-11-03T15:27:55.613Z,10.46
2022-11-03T15:30:07.688Z,10.37
2022-11-03T15:32:19.805Z,10.30
2022-11-03T15:34:31.862Z,10.18
2022-11-03T15:36:43.998Z,10.04
2022-11-03T15:38:56.070Z,10.03
2022-11-03T15:41:09.000Z,9.94
2022-11-03T15:43:20.246Z,9.88
2022-11-03T15:45:32.292Z,9.88
2022-11-03T15:47:44.380Z,9.81
2022-11-03T15:49:56.458Z,9.85
2022-11-03T15:52:08.572Z,9.85
2022-11-03T15:54:20.638Z,9.91
2022-11-03T15:56:32.695Z,10.06
2022-11-03T15:58:44.764Z,10.15
2022-11-03T16:00:57.758Z,10.21
2022-11-03T16:03:09.084Z,10.18
2022-11-03T16:05:25.161Z,10.21
2022-11-03T16:07:33.151Z,10.32
2022-11-03T16:09:45.230Z,10.43
2022-11-03T16:11:57.287Z,10.39
2022-11-03T16:14:10.383Z,10.32
2022-11-03T16:16:21.488Z,10.24
2022-11-03T16:18:33.527Z,10.21
2022-11-03T16:20:45.614Z,10.09
2022-11-03T16:22:57.752Z,10.07
2022-11-03T16:25:12.785Z,10.07
2022-11-03T16:27:21.876Z,10.04
2022-11-03T16:29:34.004Z,10.10
2022-11-03T16:31:46.078Z,10.17
2022-11-03T16:33:59.102Z,10.15
2022-11-03T16:36:10.227Z,10.12
2022-11-03T16:38:23.321Z,10.10
2022-11-03T16:40:35.678Z,10.04
2022-11-03T16:42:47.749Z,10.09
2022-11-03T16:44:59.851Z,10.15
2022-11-03T16:47:11.915Z,10.25
2022-11-03T16:49:24.028Z,10.24
2022-11-03T16:51:36.077Z,10.21
2022-11-03T16:53:48.148Z,10.17
2022-11-03T16:56:00.241Z,10.18
2022-11-03T16:58:12.318Z,10.28
2022-11-03T17:00:24.445Z,10.21
2022-11-03T17:02:36.595Z,10.18
2022-11-03T17:04:48.555Z,10.18
2022-11-03T17:07:01.632Z,10.24
2022-11-03T17:09:13.717Z,10.24
2022-11-03T17:11:25.817Z,10.26
2022-11-03T17:13:37.861Z,10.25
2022-11-03T17:15:49.953Z,10.30
2022-11-03T17:18:02.094Z,10.22
2022-11-03T17:20:14.116Z,10.28
2022-11-03T17:22:26.284Z,10.28
2022-11-03T17:24:38.283Z,10.32
2022-11-03T17:26:50.909Z,10.26
2022-11-03T17:29:03.442Z,10.21
2022-11-03T17:31:15.513Z,10.21
2022-11-03T17:33:27.615Z,10.30
2022-11-03T17:35:40.176Z,10.28
2022-11-03T17:37:51.773Z,10.34
2022-11-03T17:40:03.863Z,10.39
2022-11-03T17:42:15.932Z,10.39
2022-11-03T17:44:28.049Z,10.39
2022-11-03T17:46:40.104Z,10.39
2022-11-03T17:48:52.172Z,10.47
2022-11-03T17:51:04.272Z,10.55
2022-11-03T17:53:16.343Z,10.53
2022-11-03T17:55:28.446Z,10.52
2022-11-03T17:57:40.500Z,10.53
2022-11-03T17:59:52.579Z,10.55
2022-11-03T18:02:04.770Z,10.58
2022-11-03T18:04:16.769Z,10.60
2022-11-03T18:06:28.878Z,10.56
2022-11-03T18:08:40.938Z,10.55
2022-11-03T18:10:54.007Z,10.47
2022-11-03T18:13:06.079Z,10.43
2022-11-03T18:15:18.160Z,10.39
2022-11-03T18:17:30.280Z,10.36
2022-11-03T18:19:42.327Z,10.33
2022-11-03T18:21:54.415Z,10.28
2022-11-03T18:24:06.492Z,10.22
2022-11-03T18:26:19.556Z,10.21
2022-11-03T18:28:31.676Z,10.22
2022-11-03T18:30:43.732Z,10.25
2022-11-03T18:32:55.800Z,10.34
2022-11-03T18:35:07.873Z,10.34
2022-11-03T18:37:20.819Z,10.28
2022-11-03T18:39:32.569Z,10.30
2022-11-03T18:41:44.135Z,10.26
2022-11-03T18:43:56.249Z,10.39
2022-11-03T18:46:09.296Z,10.42
2022-11-03T18:48:21.375Z,10.43
2022-11-03T18:50:34.481Z,10.34
2022-11-03T18:52:46.530Z,10.32
2022-11-03T18:54:58.626Z,10.37
2022-11-03T18:57:10.703Z,10.37
2022-11-03T18:59:22.780Z,10.36
2022-11-03T19:01:35.194Z,10.34
2022-11-03T19:03:46.937Z,10.33
2022-11-03T19:05:59.045Z,10.32
2022-11-03T19:08:11.099Z,10.28
2022-11-03T19:10:23.168Z,10.24
2022-11-03T19:12:39.047Z,10.15
2022-11-03T19:14:47.433Z,10.19
2022-11-03T19:17:21.808Z,10.15
2022-11-03T19:19:11.494Z,10.09
2022-11-03T19:21:23.583Z,10.12
2022-11-03T19:23:35.674Z,10.19
2022-11-03T19:25:47.737Z,10.22
2022-11-03T19:27:59.859Z,10.24
2022-11-03T19:30:11.897Z,10.19
2022-11-03T19:32:24.010Z,10.10
2022-11-03T19:34:36.107Z,10.14
2022-11-03T19:36:48.325Z,10.06
2022-11-03T19:39:00.355Z,10.04
2022-11-03T19:41:12.319Z,9.97
2022-11-03T19:43:24.401Z,9.86
2022-11-03T19:45:36.521Z,9.79
2022-11-03T19:48:10.591Z,9.68
2022-11-03T19:48:49.554Z,9.68
2022-11-03T19:51:01.646Z,9.75
2022-11-03T19:53:13.717Z,9.73
2022-11-03T19:55:25.802Z,9.71
2022-11-03T19:57:37.907Z,9.75
2022-11-03T19:59:49.988Z,9.70
2022-11-03T20:02:02.155Z,9.68
2022-11-03T20:04:15.052Z,9.61
2022-11-03T20:06:26.224Z,9.58
2022-11-03T20:08:39.308Z,9.56
2022-11-03T20:10:51.393Z,9.52
2022-11-03T20:13:03.493Z,9.50
2022-11-03T20:15:15.579Z,9.49
2022-11-03T20:17:28.643Z,9.48
2022-11-03T20:19:41.713Z,9.50
2022-11-03T20:21:53.823Z,9.49
2022-11-03T20:24:05.908Z,9.43
2022-11-03T20:26:17.965Z,9.39
2022-11-03T20:28:30.058Z,9.32
2022-11-03T20:30:42.124Z,9.38
2022-11-03T20:32:54.235Z,9.34
2022-11-03T20:35:06.320Z,9.30
2022-11-03T20:37:18.944Z,9.25
2022-11-03T20:39:30.461Z,9.18
2022-11-03T20:41:42.528Z,9.13
2022-11-03T20:43:54.621Z,9.09
2022-11-03T20:46:06.747Z,9.05
2022-11-03T20:48:18.785Z,8.99
2022-11-03T20:50:30.867Z,8.93
2022-11-03T20:52:42.948Z,8.90
2022-11-03T20:54:56.027Z,8.87
2022-11-03T20:57:09.124Z,8.84
2022-11-03T20:59:21.177Z,8.83
2022-11-03T21:01:33.951Z,8.81
2022-11-03T21:04:04.363Z,8.73
2022-11-03T21:04:49.835Z,8.68
2022-11-03T21:07:09.431Z,8.60
2022-11-03T21:09:21.508Z,8.65
2022-11-03T21:11:33.573Z,8.62
2022-11-03T21:13:45.711Z,8.71
2022-11-03T21:16:23.063Z,8.68
2022-11-03T21:18:09.846Z,8.60
2022-11-03T21:20:21.932Z,8.55
2022-11-03T21:24:46.127Z,8.37
2022-11-03T21:26:58.463Z,8.29
2022-11-03T21:29:10.587Z,8.39
2022-11-03T21:31:22.645Z,8.50
2022-11-03T21:33:34.705Z,8.54
2022-11-03T21:35:47.841Z,8.50
2022-11-03T21:37:59.863Z,8.55
2022-11-03T21:40:12.946Z,8.44
2022-11-03T21:42:25.028Z,8.39
2022-11-03T21:44:37.109Z,8.40
2022-11-03T21:46:49.228Z,8.39
2022-11-03T21:49:01.275Z,8.36
2022-11-03T21:51:13.364Z,8.26
2022-11-03T21:53:25.453Z,8.28
2022-11-03T21:55:37.534Z,8.22
2022-11-03T21:57:49.640Z,8.14
2022-11-03T22:00:01.690Z,8.07
2022-11-03T22:02:13.793Z,8.03
2022-11-03T22:04:25.860Z,8.03
2022-11-03T22:06:37.942Z,8.03
2022-11-03T22:08:50.055Z,8.00
2022-11-03T22:11:02.106Z,8.00
2022-11-03T22:13:14.183Z,8.00
2022-11-03T22:15:26.268Z,7.99
2022-11-03T22:17:38.366Z,7.97
2022-11-03T22:19:50.485Z,7.92
2022-11-03T22:22:03.121Z,7.82
2022-11-03T22:24:14.935Z,7.74
2022-11-03T22:26:27.025Z,7.72
2022-11-03T22:28:39.106Z,7.66
2022-11-03T22:30:51.205Z,7.67
2022-11-03T22:33:03.250Z,7.69
2022-11-03T22:35:16.343Z,7.75
2022-11-03T22:38:03.831Z,7.74
2022-11-03T22:40:15.903Z,7.72
2022-11-03T22:42:27.990Z,7.63
2022-11-03T22:44:40.060Z,7.59
2022-11-03T22:46:52.236Z,7.53
2022-11-03T22:49:04.249Z,7.53
2022-11-03T22:51:16.335Z,7.62
2022-11-03T22:53:28.412Z,7.69
2022-11-03T22:55:41.520Z,7.69
2022-11-03T22:57:53.621Z,7.66
2022-11-03T23:00:05.716Z,7.79
2022-11-03T23:02:18.869Z,7.81
2022-11-03T23:04:30.827Z,7.79
2022-11-03T23:06:43.908Z,7.81
2022-11-03T23:08:56.017Z,7.75
2022-11-03T23:11:08.096Z,7.67
2022-11-03T23:13:21.162Z,7.56
2022-11-03T23:15:33.094Z,7.47
2022-11-03T23:17:44.332Z,7.41
2022-11-03T23:19:56.449Z,7.37
2022-11-03T23:22:08.486Z,7.27
2022-11-03T23:24:21.422Z,7.24
2022-11-03T23:26:32.688Z,7.22
2022-11-03T23:28:44.808Z,7.20
2022-11-03T23:30:58.852Z,7.24
2022-11-03T23:33:11.227Z,7.27
2022-11-03T23:35:24.023Z,7.27
2022-11-03T23:37:36.139Z,7.19
2022-11-03T23:39:48.204Z,7.12
2022-11-03T23:42:00.335Z,7.02
2022-11-03T23:44:12.358Z,7.02
2022-11-03T23:46:25.426Z,6.98
2022-11-03T23:48:37.523Z,6.98
2022-11-03T23:50:50.573Z,7.01
2022-11-03T23:53:02.698Z,7.04
2022-11-03T23:55:14.737Z,7.05
2022-11-03T23:57:27.813Z,7.08
2022-11-03T23:59:39.927Z,7.07
